createdAt,value
2018-08-11T00:02:19.766Z,21.46
2018-08-11T00:04:48.390Z,21.35
2018-08-11T00:07:17.106Z,21.24
2018-08-11T00:09:45.840Z,21.20
2018-08-11T00:12:14.563Z,21.22
2018-08-11T00:14:43.253Z,21.26
2018-08-11T00:17:12.061Z,21.23
2018-08-11T00:19:40.818Z,21.16
2018-08-11T00:22:09.507Z,21.09
2018-08-11T00:24:38.178Z,21.06
2018-08-11T00:27:06.941Z,21.18
2018-08-11T00:29:35.754Z,21.21
2018-08-11T00:32:04.686Z,21.14
2018-08-11T00:34:33.327Z,21.11
2018-08-11T00:37:02.053Z,21.14
2018-08-11T00:39:30.950Z,21.13
2018-08-11T00:41:59.675Z,21.05
2018-08-11T00:44:28.431Z,21.00
2018-08-11T00:46:57.280Z,20.94
2018-08-11T00:49:25.969Z,20.87
2018-08-11T00:51:54.633Z,20.91
2018-08-11T00:54:23.311Z,21.00
2018-08-11T00:56:52.086Z,21.11
2018-08-11T00:59:20.841Z,21.08
2018-08-11T01:01:49.600Z,20.97
2018-08-11T01:04:18.273Z,20.84
2018-08-11T01:06:47.134Z,20.66
2018-08-11T01:09:15.830Z,20.74
2018-08-11T01:11:44.597Z,20.88
2018-08-11T01:14:13.292Z,20.87
2018-08-11T01:16:42.003Z,20.81
2018-08-11T01:19:10.735Z,20.78
2018-08-11T01:21:39.526Z,20.69
2018-08-11T01:24:08.288Z,20.57
2018-08-11T01:26:37.038Z,20.49
2018-08-11T01:29:06.373Z,20.45
2018-08-11T01:31:35.032Z,20.37
2018-08-11T01:34:03.743Z,20.33
2018-08-11T01:36:32.406Z,20.31
2018-08-11T01:39:01.114Z,20.31
2018-08-11T01:41:29.795Z,20.46
2018-08-11T01:43:59.214Z,20.61
2018-08-11T01:46:27.891Z,20.53
2018-08-11T01:48:56.598Z,20.55
2018-08-11T01:51:25.418Z,20.63
2018-08-11T01:53:54.128Z,20.60
2018-08-11T01:56:22.859Z,20.51
2018-08-11T01:58:51.669Z,20.42
2018-08-11T02:01:20.483Z,20.34
2018-08-11T02:03:49.135Z,20.34
2018-08-11T02:06:17.874Z,20.36
2018-08-11T02:08:46.593Z,20.37
2018-08-11T02:11:15.282Z,20.40
2018-08-11T02:13:44.016Z,20.47
2018-08-11T02:16:12.749Z,20.49
2018-08-11T02:18:41.531Z,20.41
2018-08-11T02:21:10.246Z,20.41
2018-08-11T02:23:38.925Z,20.35
2018-08-11T02:26:07.642Z,20.27
2018-08-11T02:28:36.368Z,20.21
2018-08-11T02:31:05.462Z,20.15
2018-08-11T02:33:34.124Z,20.13
2018-08-11T02:36:02.808Z,20.09
2018-08-11T02:38:31.521Z,19.97
2018-08-11T02:41:00.196Z,19.97
2018-08-11T02:43:29.029Z,19.94
2018-08-11T02:45:57.664Z,19.87
2018-08-11T02:48:26.388Z,19.75
2018-08-11T02:50:55.116Z,19.62
2018-08-11T02:53:23.843Z,19.63
2018-08-11T02:55:52.536Z,19.62
2018-08-11T02:58:21.238Z,19.60
2018-08-11T03:00:50.171Z,19.58
2018-08-11T03:03:18.931Z,19.52
2018-08-11T03:05:47.615Z,19.54
2018-08-11T03:08:16.297Z,19.51
2018-08-11T03:10:45.013Z,19.54
2018-08-11T03:13:13.742Z,19.46
2018-08-11T03:15:42.516Z,19.46
2018-08-11T03:18:11.246Z,19.42
2018-08-11T03:20:40.009Z,19.44
2018-08-11T03:23:08.882Z,19.50
2018-08-11T03:25:37.643Z,19.49
2018-08-11T03:28:06.709Z,19.56
2018-08-11T03:30:35.379Z,19.55
2018-08-11T03:33:04.107Z,19.49
2018-08-11T03:35:32.829Z,19.36
2018-08-11T03:38:01.904Z,19.30
2018-08-11T03:40:30.608Z,19.20
2018-08-11T03:42:59.358Z,19.21
2018-08-11T03:45:27.996Z,19.24
2018-08-11T03:47:57.163Z,19.21
2018-08-11T03:50:25.893Z,19.22
2018-08-11T03:52:54.573Z,19.29
2018-08-11T03:55:23.243Z,19.24
2018-08-11T03:57:51.892Z,19.22
2018-08-11T04:00:20.578Z,19.17
2018-08-11T04:02:49.265Z,19.17
2018-08-11T04:05:17.985Z,19.02
2018-08-11T04:07:46.658Z,18.99
2018-08-11T04:10:15.295Z,18.90
2018-08-11T04:12:43.937Z,18.83
2018-08-11T04:15:12.598Z,18.80
2018-08-11T04:17:41.663Z,18.79
2018-08-11T04:20:12.185Z,18.84
2018-08-11T04:22:40.874Z,18.85
2018-08-11T04:25:09.885Z,18.81
2018-08-11T04:27:38.643Z,18.77
2018-08-11T04:30:09.086Z,18.74
2018-08-11T04:32:37.828Z,18.90
2018-08-11T04:35:06.559Z,18.98
2018-08-11T04:37:35.290Z,19.04
2018-08-11T04:40:04.737Z,19.20
2018-08-11T04:42:33.418Z,19.42
2018-08-11T04:45:02.140Z,19.55
2018-08-11T04:47:30.898Z,19.72
2018-08-11T04:49:59.664Z,19.75
2018-08-11T04:52:28.350Z,19.86
2018-08-11T04:54:57.075Z,20.04
2018-08-11T04:57:26.010Z,20.25
2018-08-11T04:59:54.638Z,20.53
2018-08-11T05:02:23.275Z,20.66
2018-08-11T05:04:51.923Z,20.83
2018-08-11T05:07:20.675Z,21.16
2018-08-11T05:09:49.698Z,21.35
2018-08-11T05:12:18.393Z,21.45
2018-08-11T05:14:47.090Z,21.48
2018-08-11T05:17:15.816Z,21.58
2018-08-11T05:19:44.500Z,21.85
2018-08-11T05:22:13.170Z,22.02
2018-08-11T05:24:41.978Z,22.07
2018-08-11T05:27:10.760Z,22.22
2018-08-11T05:29:39.466Z,22.44
2018-08-11T05:32:08.262Z,22.29
2018-08-11T05:34:36.932Z,22.22
2018-08-11T05:37:06.133Z,22.20
2018-08-11T05:39:34.922Z,22.27
2018-08-11T05:42:03.823Z,22.13
2018-08-11T05:44:32.555Z,22.33
2018-08-11T05:47:01.353Z,22.30
2018-08-11T05:49:30.733Z,22.44
2018-08-11T05:51:59.404Z,22.71
2018-08-11T05:54:28.095Z,23.07
2018-08-11T05:56:56.781Z,23.47
2018-08-11T05:59:25.465Z,23.62
2018-08-11T06:01:54.172Z,23.89
2018-08-11T06:04:22.841Z,24.20
2018-08-11T06:06:51.574Z,24.70
2018-08-11T06:09:20.245Z,24.86
2018-08-11T06:11:48.925Z,25.20
2018-08-11T06:14:17.548Z,25.55
2018-08-11T06:16:46.224Z,25.93
2018-08-11T06:19:14.870Z,25.44
2018-08-11T06:21:43.648Z,25.18
2018-08-11T06:24:12.399Z,25.33
2018-08-11T06:26:40.998Z,25.15
2018-08-11T06:29:09.701Z,25.39
2018-08-11T06:31:38.458Z,25.65
2018-08-11T06:34:07.194Z,26.21
2018-08-11T06:36:35.967Z,26.65
2018-08-11T06:39:08.416Z,26.73
2018-08-11T06:41:37.131Z,26.95
2018-08-11T06:44:05.736Z,27.23
2018-08-11T06:46:34.455Z,27.29
2018-08-11T06:49:03.091Z,26.82
2018-08-11T06:51:31.883Z,26.76
2018-08-11T06:54:00.627Z,26.71
2018-08-11T06:56:29.267Z,26.94
2018-08-11T06:58:57.963Z,27.29
2018-08-11T07:01:26.610Z,27.57
2018-08-11T07:03:55.277Z,28.14
2018-08-11T07:06:24.003Z,28.21
2018-08-11T07:08:52.696Z,28.72
2018-08-11T07:11:21.416Z,28.55
2018-08-11T07:13:50.151Z,28.66
2018-08-11T07:16:18.864Z,28.82
2018-08-11T07:18:49.176Z,28.92
2018-08-11T07:21:17.893Z,28.80
2018-08-11T07:23:46.511Z,28.65
2018-08-11T07:26:15.263Z,28.85
2018-08-11T07:28:43.908Z,29.28
2018-08-11T07:31:12.666Z,29.57
2018-08-11T07:33:41.530Z,29.52
2018-08-11T07:36:10.344Z,29.99
2018-08-11T07:38:39.007Z,30.41
2018-08-11T07:41:07.730Z,30.61
2018-08-11T07:43:37.137Z,31.20
2018-08-11T07:46:05.881Z,31.06
2018-08-11T07:48:34.652Z,31.35
2018-08-11T07:51:04.168Z,31.58
2018-08-11T07:53:32.925Z,31.71
2018-08-11T07:56:01.782Z,31.84
2018-08-11T07:58:30.459Z,32.09
2018-08-11T08:00:59.143Z,32.19
2018-08-11T08:03:27.891Z,32.44
2018-08-11T08:05:56.561Z,32.31
2018-08-11T08:08:25.290Z,32.94
2018-08-11T08:10:53.958Z,32.99
2018-08-11T08:13:22.664Z,32.83
2018-08-11T08:15:51.348Z,32.95
2018-08-11T08:18:20.103Z,33.03
2018-08-11T08:20:49.387Z,33.48
2018-08-11T08:23:19.093Z,33.58
2018-08-11T08:25:47.946Z,33.54
2018-08-11T08:28:16.736Z,33.48
2018-08-11T08:30:45.731Z,33.60
2018-08-11T08:33:14.427Z,33.70
2018-08-11T08:35:43.978Z,34.15
2018-08-11T08:38:12.944Z,33.53
2018-08-11T08:40:41.744Z,34.47
2018-08-11T08:43:11.014Z,34.41
2018-08-11T08:45:40.942Z,34.43
2018-08-11T08:48:09.724Z,34.73
2018-08-11T08:50:38.397Z,34.72
2018-08-11T08:53:07.401Z,34.98
2018-08-11T08:55:36.179Z,35.12
2018-08-11T08:58:05.088Z,35.18
2018-08-11T09:00:34.773Z,35.44
2018-08-11T09:03:03.524Z,35.35
2018-08-11T09:05:32.807Z,35.57
2018-08-11T09:08:01.594Z,35.72
2018-08-11T09:10:30.324Z,35.41
2018-08-11T09:12:59.087Z,35.52
2018-08-11T09:15:27.901Z,35.73
2018-08-11T09:17:56.584Z,36.08
2018-08-11T09:20:25.292Z,36.04
2018-08-11T09:22:54.114Z,35.86
2018-08-11T09:25:22.985Z,35.77
2018-08-11T09:27:51.777Z,35.65
2018-08-11T09:30:20.551Z,35.66
2018-08-11T09:32:49.273Z,35.32
2018-08-11T09:35:18.998Z,35.67
2018-08-11T09:37:47.739Z,36.14
2018-08-11T09:40:16.690Z,36.61
2018-08-11T09:42:45.445Z,36.96
2018-08-11T09:45:15.485Z,37.19
2018-08-11T09:47:44.313Z,37.05
2018-08-11T09:50:13.288Z,37.10
2018-08-11T09:52:42.573Z,37.27
2018-08-11T09:55:11.308Z,37.23
2018-08-11T09:57:40.113Z,37.41
2018-08-11T10:00:09.485Z,37.48
2018-08-11T10:02:38.201Z,37.58
2018-08-11T10:05:07.764Z,37.74
2018-08-11T10:07:36.598Z,38.22
2018-08-11T10:10:05.827Z,37.60
2018-08-11T10:12:34.628Z,37.37
2018-08-11T10:15:03.358Z,37.61
2018-08-11T10:17:32.112Z,37.69
2018-08-11T10:20:00.814Z,38.09
2018-08-11T10:22:29.526Z,38.39
2018-08-11T10:24:58.245Z,38.47
2018-08-11T10:27:28.006Z,38.33
2018-08-11T10:29:56.715Z,38.76
2018-08-11T10:32:25.533Z,38.64
2018-08-11T10:34:54.440Z,38.63
2018-08-11T10:37:23.156Z,38.51
2018-08-11T10:39:53.669Z,38.60
2018-08-11T10:42:22.407Z,38.79
2018-08-11T10:44:51.124Z,39.01
2018-08-11T10:47:19.894Z,39.19
2018-08-11T10:49:48.539Z,38.91
2018-08-11T10:52:18.945Z,39.07
2018-08-11T10:54:47.851Z,39.24
2018-08-11T10:57:16.624Z,39.76
2018-08-11T10:59:45.406Z,39.43
2018-08-11T11:02:14.250Z,39.62
2018-08-11T11:04:43.121Z,39.60
2018-08-11T11:07:11.816Z,39.21
2018-08-11T11:09:40.617Z,39.16
2018-08-11T11:12:09.516Z,39.07
2018-08-11T11:14:38.329Z,38.70
2018-08-11T11:17:07.128Z,39.01
2018-08-11T11:19:36.674Z,39.13
2018-08-11T11:22:05.383Z,38.73
2018-08-11T11:24:34.104Z,39.47
2018-08-11T11:27:02.876Z,39.83
2018-08-11T11:29:31.534Z,39.61
2018-08-11T11:32:00.239Z,40.04
2018-08-11T11:34:28.887Z,40.44
2018-08-11T11:36:57.565Z,40.35
2018-08-11T11:39:26.306Z,40.35
2018-08-11T11:41:55.049Z,41.12
2018-08-11T11:44:23.736Z,41.58
2018-08-11T11:46:52.396Z,41.00
2018-08-11T11:49:21.099Z,40.81
2018-08-11T11:51:49.809Z,40.61
2018-08-11T11:54:18.770Z,40.65
2018-08-11T11:56:47.499Z,40.84
2018-08-11T11:59:16.130Z,41.27
2018-08-11T12:01:44.876Z,40.87
2018-08-11T12:04:13.833Z,40.74
2018-08-11T12:06:42.592Z,40.69
2018-08-11T12:09:11.638Z,40.53
2018-08-11T12:11:40.266Z,40.59
2018-08-11T12:14:09.021Z,41.09
2018-08-11T12:16:38.008Z,40.53
2018-08-11T12:19:06.745Z,40.64
2018-08-11T12:21:35.487Z,40.60
2018-08-11T12:24:04.576Z,40.95
2018-08-11T12:26:33.313Z,40.85
2018-08-11T12:29:02.199Z,41.43
2018-08-11T12:31:30.922Z,41.03
2018-08-11T12:33:59.601Z,41.25
2018-08-11T12:36:28.523Z,41.41
2018-08-11T12:38:57.171Z,41.05
2018-08-11T12:41:26.683Z,40.92
2018-08-11T12:43:55.711Z,41.36
2018-08-11T12:46:24.445Z,41.21
2018-08-11T12:48:54.696Z,40.81
2018-08-11T12:51:23.431Z,40.71
2018-08-11T12:53:52.161Z,41.37
2018-08-11T12:56:21.081Z,40.74
2018-08-11T12:58:49.881Z,40.71
2018-08-11T13:01:18.679Z,41.15
2018-08-11T13:03:47.478Z,41.46
2018-08-11T13:06:16.376Z,41.79
2018-08-11T13:08:45.200Z,41.97
2018-08-11T13:11:14.195Z,42.31
2018-08-11T13:13:43.019Z,42.07
2018-08-11T13:16:11.773Z,41.84
2018-08-11T13:18:40.586Z,41.62
2018-08-11T13:21:09.257Z,41.62
2018-08-11T13:23:38.104Z,40.76
2018-08-11T13:26:08.301Z,40.95
2018-08-11T13:28:37.953Z,40.99
2018-08-11T13:31:07.035Z,40.84
2018-08-11T13:33:35.664Z,40.97
2018-08-11T13:36:04.379Z,40.50
2018-08-11T13:38:33.457Z,40.60
2018-08-11T13:41:02.160Z,40.06
2018-08-11T13:43:30.751Z,39.91
2018-08-11T13:46:00.666Z,40.28
2018-08-11T13:48:30.404Z,40.37
2018-08-11T13:50:59.532Z,41.11
2018-08-11T13:53:29.073Z,41.53
2018-08-11T13:55:57.857Z,41.94
2018-08-11T13:58:27.226Z,42.20
2018-08-11T14:00:55.913Z,42.68
2018-08-11T14:03:24.644Z,42.45
2018-08-11T14:05:53.504Z,41.95
2018-08-11T14:08:23.259Z,41.91
2018-08-11T14:10:52.201Z,41.93
2018-08-11T14:13:20.940Z,42.04
2018-08-11T14:15:49.684Z,41.90
2018-08-11T14:18:18.493Z,41.88
2018-08-11T14:20:47.151Z,41.40
2018-08-11T14:23:17.249Z,40.21
2018-08-11T14:25:46.008Z,39.62
2018-08-11T14:28:15.338Z,40.42
2018-08-11T14:30:43.974Z,39.64
2018-08-11T14:33:12.865Z,38.39
2018-08-11T14:35:41.534Z,37.88
2018-08-11T14:38:10.385Z,38.66
2018-08-11T14:40:39.516Z,39.98
2018-08-11T14:43:08.344Z,40.19
2018-08-11T14:45:37.068Z,40.15
2018-08-11T14:48:06.224Z,40.85
2018-08-11T14:50:35.133Z,40.33
2018-08-11T14:53:03.954Z,39.64
2018-08-11T14:55:33.145Z,40.32
2018-08-11T14:58:02.257Z,40.80
2018-08-11T15:00:30.999Z,40.88
2018-08-11T15:02:59.685Z,40.37
2018-08-11T15:05:29.180Z,40.45
2018-08-11T15:07:57.811Z,40.81
2018-08-11T15:10:26.468Z,40.61
2018-08-11T15:12:55.695Z,40.29
2018-08-11T15:15:24.531Z,39.03
2018-08-11T15:17:53.319Z,37.96
2018-08-11T15:20:22.685Z,37.44
2018-08-11T15:22:51.386Z,37.83
2018-08-11T15:25:21.258Z,38.80
2018-08-11T15:27:50.104Z,39.68
2018-08-11T15:30:18.882Z,40.09
2018-08-11T15:32:47.623Z,40.26
2018-08-11T15:35:16.334Z,40.24
2018-08-11T15:37:45.092Z,39.87
2018-08-11T15:40:13.789Z,39.05
2018-08-11T15:42:42.419Z,38.22
2018-08-11T15:45:11.153Z,37.53
2018-08-11T15:47:39.884Z,37.75
2018-08-11T15:50:08.612Z,38.68
2018-08-11T15:52:38.106Z,38.95
2018-08-11T15:55:07.091Z,39.35
2018-08-11T15:57:35.852Z,39.41
2018-08-11T16:00:05.914Z,39.41
2018-08-11T16:02:34.632Z,39.38
2018-08-11T16:05:03.556Z,39.81
2018-08-11T16:07:32.359Z,39.83
2018-08-11T16:10:01.147Z,39.43
2018-08-11T16:12:30.421Z,39.39
2018-08-11T16:14:59.284Z,39.14
2018-08-11T16:17:28.147Z,39.33
2018-08-11T16:19:56.894Z,39.10
2018-08-11T16:22:26.709Z,38.98
2018-08-11T16:24:55.381Z,38.50
2018-08-11T16:27:24.246Z,38.31
2018-08-11T16:29:53.027Z,38.27
2018-08-11T16:32:22.368Z,38.07
2018-08-11T16:34:51.110Z,38.00
2018-08-11T16:37:19.865Z,37.85
2018-08-11T16:39:48.594Z,37.91
2018-08-11T16:42:17.356Z,37.32
2018-08-11T16:44:46.092Z,36.30
2018-08-11T16:47:14.909Z,35.42
2018-08-11T16:49:44.285Z,34.63
2018-08-11T16:52:13.117Z,34.16
2018-08-11T16:54:41.863Z,33.93
2018-08-11T16:57:11.354Z,33.73
2018-08-11T16:59:40.149Z,33.53
2018-08-11T17:02:08.906Z,33.37
2018-08-11T17:04:37.654Z,33.10
2018-08-11T17:07:06.311Z,32.98
2018-08-11T17:09:35.124Z,32.84
2018-08-11T17:12:03.936Z,32.72
2018-08-11T17:14:32.644Z,32.53
2018-08-11T17:17:01.373Z,32.34
2018-08-11T17:19:30.111Z,32.25
2018-08-11T17:21:58.846Z,32.22
2018-08-11T17:24:27.843Z,32.18
2018-08-11T17:26:56.961Z,32.09
2018-08-11T17:29:26.701Z,31.87
2018-08-11T17:31:55.578Z,31.73
2018-08-11T17:34:24.928Z,31.59
2018-08-11T17:36:53.699Z,31.51
2018-08-11T17:39:22.509Z,31.49
2018-08-11T17:41:52.202Z,31.36
2018-08-11T17:44:20.899Z,31.16
2018-08-11T17:46:49.586Z,31.13
2018-08-11T17:49:18.254Z,31.07
2018-08-11T17:51:47.959Z,30.97
2018-08-11T17:54:16.598Z,30.82
2018-08-11T17:56:46.200Z,30.64
2018-08-11T17:59:15.585Z,30.50
2018-08-11T18:01:44.226Z,30.29
2018-08-11T18:04:12.873Z,30.14
2018-08-11T18:06:41.566Z,29.99
2018-08-11T18:09:11.166Z,29.84
2018-08-11T18:11:40.391Z,29.91
2018-08-11T18:14:09.433Z,29.87
2018-08-11T18:16:38.156Z,29.62
2018-08-11T18:19:06.954Z,29.40
2018-08-11T18:21:36.414Z,29.27
2018-08-11T18:24:05.286Z,29.10
2018-08-11T18:26:34.065Z,29.07
2018-08-11T18:29:02.925Z,28.97
2018-08-11T18:31:31.754Z,28.85
2018-08-11T18:34:00.576Z,28.73
2018-08-11T18:36:29.318Z,28.66
2018-08-11T18:38:58.061Z,28.57
2018-08-11T18:41:26.951Z,28.53
2018-08-11T18:43:56.324Z,28.39
2018-08-11T18:46:25.089Z,28.27
2018-08-11T18:48:53.789Z,28.13
2018-08-11T18:51:22.650Z,28.07
2018-08-11T18:53:51.321Z,28.13
2018-08-11T18:56:20.071Z,28.09
2018-08-11T18:58:48.823Z,28.04
2018-08-11T19:01:18.625Z,27.91
2018-08-11T19:03:48.018Z,27.93
2018-08-11T19:06:16.793Z,27.82
2018-08-11T19:08:45.568Z,27.66
2018-08-11T19:11:14.321Z,27.57
2018-08-11T19:13:43.076Z,27.45
2018-08-11T19:16:11.755Z,27.29
2018-08-11T19:18:40.491Z,27.15
2018-08-11T19:21:09.206Z,27.05
2018-08-11T19:23:38.558Z,27.11
2018-08-11T19:26:07.397Z,27.21
2018-08-11T19:28:36.538Z,27.56
2018-08-11T19:31:05.658Z,27.75
2018-08-11T19:33:34.673Z,27.60
2018-08-11T19:36:03.543Z,27.72
2018-08-11T19:38:32.371Z,27.73
2018-08-11T19:41:02.210Z,27.62
2018-08-11T19:43:31.178Z,27.37
2018-08-11T19:45:59.933Z,27.22
2018-08-11T19:48:28.983Z,27.16
2018-08-11T19:50:58.014Z,26.88
2018-08-11T19:53:26.854Z,26.63
2018-08-11T19:55:57.272Z,26.64
2018-08-11T19:58:26.105Z,27.04
2018-08-11T20:00:54.840Z,27.02
2018-08-11T20:03:23.618Z,26.71
2018-08-11T20:05:52.472Z,26.45
2018-08-11T20:08:21.218Z,26.25
2018-08-11T20:10:49.993Z,26.11
2018-08-11T20:13:19.306Z,25.96
2018-08-11T20:15:48.138Z,25.87
2018-08-11T20:18:16.892Z,25.78
2018-08-11T20:20:46.266Z,25.79
2018-08-11T20:23:15.001Z,25.83
2018-08-11T20:25:43.792Z,25.78
2018-08-11T20:28:14.893Z,25.70
2018-08-11T20:30:44.233Z,25.66
2018-08-11T20:33:13.293Z,25.72
2018-08-11T20:35:42.124Z,25.87
2018-08-11T20:38:11.168Z,25.91
2018-08-11T20:40:39.933Z,25.93
2018-08-11T20:43:08.688Z,25.91
2018-08-11T20:45:37.489Z,25.81
2018-08-11T20:48:07.269Z,25.75
2018-08-11T20:50:36.559Z,25.93
2018-08-11T20:53:05.511Z,26.31
2018-08-11T20:55:34.446Z,26.61
2018-08-11T20:58:03.208Z,26.62
2018-08-11T21:00:32.627Z,26.49
2018-08-11T21:03:01.351Z,26.34
2018-08-11T21:05:30.139Z,26.06
2018-08-11T21:07:58.973Z,25.55
2018-08-11T21:10:27.826Z,25.16
2018-08-11T21:12:56.546Z,24.96
2018-08-11T21:15:25.380Z,24.82
2018-08-11T21:17:54.073Z,24.60
2018-08-11T21:20:22.843Z,24.40
2018-08-11T21:22:51.600Z,24.11
2018-08-11T21:25:20.275Z,23.85
2018-08-11T21:27:48.998Z,23.64
2018-08-11T21:30:17.713Z,23.48
2018-08-11T21:32:46.482Z,23.38
2018-08-11T21:35:15.332Z,23.39
2018-08-11T21:37:44.358Z,23.37
2018-08-11T21:40:14.453Z,23.30
2018-08-11T21:42:44.178Z,23.26
2018-08-11T21:45:13.550Z,23.22
2018-08-11T21:47:42.566Z,23.17
2018-08-11T21:50:11.251Z,23.18
2018-08-11T21:52:40.178Z,23.25
2018-08-11T21:55:09.450Z,23.29
2018-08-11T21:57:38.508Z,23.23
2018-08-11T22:00:38.233Z,23.17
2018-08-11T22:03:08.481Z,22.96
2018-08-11T22:05:37.398Z,23.36
2018-08-11T22:08:06.121Z,23.48
2018-08-11T22:10:34.863Z,24.03
2018-08-11T22:13:03.566Z,24.13
2018-08-11T22:15:32.983Z,23.85
2018-08-11T22:18:02.380Z,23.27
2018-08-11T22:20:31.156Z,22.87
2018-08-11T22:23:00.676Z,22.39
2018-08-11T22:25:29.585Z,22.08
2018-08-11T22:27:58.503Z,22.11
2018-08-11T22:30:27.366Z,22.10
2018-08-11T22:32:56.220Z,22.91
2018-08-11T22:35:25.093Z,23.30
2018-08-11T22:37:53.915Z,23.23
2018-08-11T22:40:22.668Z,23.21
2018-08-11T22:42:51.340Z,23.12
2018-08-11T22:45:20.088Z,22.72
2018-08-11T22:47:48.840Z,22.02
2018-08-11T22:50:17.642Z,21.39
2018-08-11T22:52:46.678Z,20.93
2018-08-11T22:55:15.450Z,20.63
2018-08-11T22:57:44.261Z,20.54
2018-08-11T23:00:19.098Z,20.70
2018-08-11T23:02:47.954Z,20.84
2018-08-11T23:05:18.791Z,20.91
2018-08-11T23:07:47.662Z,21.08
2018-08-11T23:10:16.958Z,20.99
2018-08-11T23:12:46.419Z,20.81
2018-08-11T23:15:17.234Z,20.67
2018-08-11T23:17:48.127Z,20.78
2018-08-11T23:20:16.902Z,21.12
2018-08-11T23:22:45.701Z,19.74
2018-08-11T23:25:15.320Z,21.08
2018-08-11T23:27:44.079Z,21.12
2018-08-11T23:30:15.266Z,21.15
2018-08-11T23:32:44.131Z,21.19
2018-08-11T23:35:13.429Z,21.23
2018-08-11T23:37:42.384Z,21.22
2018-08-11T23:40:11.465Z,21.20
2018-08-11T23:42:40.638Z,21.24
2018-08-11T23:45:16.348Z,21.29
2018-08-11T23:47:45.764Z,21.51
2018-08-11T23:50:15.014Z,21.44
2018-08-11T23:52:44.365Z,21.47
2018-08-11T23:55:14.219Z,21.42
2018-08-11T23:57:42.930Z,21.38
